Time;durP1;ratioP1;P1;durP2;ratioP2;P2;SDS_P1;SDS_P2;PMS_P1;PMS_P2;Temp;Humidity;BMP_temperature;BMP_pressure;BME280_temperature;BME280_humidity;BME280_pressure;Samples;Min_cycle;Max_cycle;Signal;HPM_P1;HPM_P2
2022/06/17 00:01:04;;;;;;;6.20;5.60;;;;;;;12.42;75.30;99675.45;430760;1273;142777;-61
2022/06/17 00:11:28;;;;;;;9.30;8.50;;;;;;;12.70;77.03;99681.06;431399;1272;142982;-60
2022/06/17 00:21:52;;;;;;;9.30;8.30;;;;;;;13.09;77.92;99689.04;430644;1273;142374;-61
2022/06/17 00:32:13;;;;;;;6.00;5.40;;;;;;;13.33;77.65;99692.35;433218;1273;142969;-61
2022/06/17 00:42:36;;;;;;;7.80;6.20;;;;;;;13.43;77.23;99700.42;431592;1272;142143;-63
2022/06/17 00:53:07;;;;;;;6.10;5.60;;;;;;;13.56;77.21;99709.31;430363;1272;147065;-60
2022/06/17 01:03:34;;;;;;;5.30;4.80;;;;;;;13.61;76.81;99716.69;431450;1271;144372;-60
2022/06/17 01:13:56;;;;;;;5.40;3.70;;;;;;;13.69;76.00;99722.48;431155;1273;142423;-61
2022/06/17 01:24:18;;;;;;;6.10;3.80;;;;;;;13.66;74.84;99740.77;432437;1273;147579;-62
2022/06/17 01:34:40;;;;;;;3.10;2.90;;;;;;;13.61;73.88;99745.35;434310;1272;142089;-60
2022/06/17 01:45:03;;;;;;;4.20;2.50;;;;;;;13.41;73.13;99747.19;432943;1272;141783;-61
2022/06/17 01:55:29;;;;;;;5.60;2.90;;;;;;;13.26;72.76;99751.75;431595;1273;141538;-60
2022/06/17 02:05:55;;;;;;;2.70;2.50;;;;;;;13.13;73.09;99753.54;431762;1273;187518;-61
2022/06/17 02:16:18;;;;;;;5.40;3.50;;;;;;;13.02;73.38;99766.80;436151;1272;142839;-61
2022/06/17 02:26:43;;;;;;;3.90;3.60;;;;;;;12.94;74.02;99784.98;437747;1272;142758;-61
2022/06/17 02:37:10;;;;;;;5.40;4.20;;;;;;;13.09;74.69;99795.90;445755;1273;142890;-60
2022/06/17 02:47:32;;;;;;;6.10;4.70;;;;;;;13.32;75.17;99809.37;446749;1271;142235;-61
2022/06/17 02:58:00;;;;;;;6.00;4.90;;;;;;;13.65;75.16;99816.70;447507;1273;142250;-62
2022/06/17 03:08:24;;;;;;;13.30;6.30;;;;;;;14.01;75.23;99824.05;439039;1273;141991;-62
2022/06/17 03:18:47;;;;;;;8.50;5.50;;;;;;;15.94;73.50;99828.27;447340;1272;143133;-62
2022/06/17 03:29:10;;;;;;;4.60;3.90;;;;;;;17.45;70.59;99839.59;442101;1272;145312;-61
2022/06/17 03:39:37;;;;;;;4.50;4.10;;;;;;;18.58;65.72;99845.46;447515;1272;145090;-61
2022/06/17 03:50:03;;;;;;;7.30;4.80;;;;;;;17.15;66.01;99857.41;437254;1272;146244;-60
2022/06/17 04:00:30;;;;;;;4.60;3.60;;;;;;;20.29;65.20;99855.74;432846;1273;147492;-62
2022/06/17 04:10:52;;;;;;;4.90;4.50;;;;;;;25.58;56.50;99862.54;430531;1273;164828;-61
2022/06/17 04:21:13;;;;;;;5.80;3.50;;;;;;;28.52;49.79;99866.20;432563;1273;147067;-62
2022/06/17 04:31:35;;;;;;;4.60;3.50;;;;;;;30.95;44.07;99876.09;432511;1273;141279;-59
2022/06/17 04:42:01;;;;;;;3.70;3.40;;;;;;;32.37;39.75;99879.86;431558;1273;143301;-62
2022/06/17 04:52:25;;;;;;;;;;;;;;;35.40;36.34;99888.11;431598;1273;141326;-61
2022/06/17 05:02:48;;;;;;;3.80;3.30;;;;;;;37.43;32.47;99894.94;432324;1273;128781;-62
2022/06/17 05:13:16;;;;;;;7.10;3.40;;;;;;;39.02;29.15;99897.55;431095;1273;141472;-60
2022/06/17 05:23:38;;;;;;;3.00;2.50;;;;;;;40.79;27.31;99907.63;432260;1273;145983;-61
2022/06/17 05:34:00;;;;;;;4.60;2.60;;;;;;;41.47;24.92;99915.81;432146;1273;143399;-61
2022/06/17 05:44:21;;;;;;;5.90;2.80;;;;;;;42.06;23.52;99923.27;429961;1273;145862;-61
2022/06/17 05:54:43;;;;;;;3.70;2.90;;;;;;;35.82;25.66;99928.48;431563;1273;141572;-62
2022/06/17 06:05:07;;;;;;;3.70;2.50;;;;;;;37.55;25.52;99926.96;430883;1273;146509;-60
2022/06/17 06:15:33;;;;;;;2.40;2.20;;;;;;;42.25;23.01;99925.76;437683;1273;143259;-62
2022/06/17 06:25:54;;;;;;;3.20;1.80;;;;;;;44.91;20.32;99929.09;438931;1273;142811;-62
2022/06/17 06:36:15;;;;;;;4.20;2.10;;;;;;;44.66;19.32;99929.19;447223;1273;140918;-61
2022/06/17 06:46:37;;;;;;;1.90;1.50;;;;;;;44.97;18.29;99926.06;432738;1273;141231;-62
2022/06/17 06:57:00;;;;;;;2.60;2.30;;;;;;;44.93;17.80;99930.07;431499;1273;141191;-62
2022/06/17 07:07:42;;;;;;;2.80;1.40;;;;;;;45.13;17.51;99931.95;431794;1273;141516;-63
2022/06/17 07:18:07;;;;;;;3.10;1.50;;;;;;;46.81;16.80;99929.52;431492;1273;141224;-61
2022/06/17 07:28:29;;;;;;;2.60;2.40;;;;;;;48.86;14.85;99938.88;431057;1274;145151;-62
2022/06/17 07:49:32;;;;;;;1.60;0.80;;;;;;;46.65;13.79;99934.52;432670;1273;141209;-61
2022/06/17 08:00:00;;;;;;;1.20;0.40;;;;;;;40.34;15.76;99939.51;432466;1274;145689;-61
2022/06/17 08:10:25;;;;;;;0.60;0.40;;;;;;;30.31;21.54;99954.64;433162;1273;141720;-59
2022/06/17 08:20:48;;;;;;;0.50;0.40;;;;;;;26.62;26.26;99956.58;431216;1273;141088;-61
2022/06/17 08:31:09;;;;;;;4.60;1.40;;;;;;;25.18;29.13;99966.86;430324;1273;242731;-61
2022/06/17 08:41:33;;;;;;;2.90;0.50;;;;;;;24.66;30.42;99978.55;434063;1273;141512;-61
2022/06/17 08:52:14;;;;;;;0.70;0.50;;;;;;;24.59;31.42;99988.85;431374;1274;143139;-60
2022/06/17 09:03:01;;;;;;;1.70;0.40;;;;;;;24.17;32.26;99996.89;432127;1273;145517;-61
2022/06/17 09:13:36;;;;;;;2.00;1.20;;;;;;;23.60;33.37;100004.73;431898;1273;141771;-62
2022/06/17 09:24:06;;;;;;;2.10;1.00;;;;;;;23.22;34.33;99996.77;432725;1272;141702;-61
2022/06/17 09:34:33;;;;;;;1.60;0.40;;;;;;;23.24;34.53;100007.85;430920;1273;142696;-61
2022/06/17 09:45:01;;;;;;;2.70;1.10;;;;;;;23.84;34.05;100010.80;432518;1273;142354;-61
2022/06/17 09:55:26;;;;;;;;;;;;;;;23.88;34.73;100016.11;431334;1273;142513;-63
2022/06/17 10:05:59;;;;;;;1.10;0.70;;;;;;;23.95;34.58;100019.39;430375;1273;129667;-62
2022/06/17 10:27:21;;;;;;;2.80;0.60;;;;;;;23.22;35.70;100009.50;431854;1272;143632;-61
2022/06/17 10:38:06;;;;;;;1.00;0.80;;;;;;;23.03;36.42;100011.04;429688;1273;143113;-62
2022/06/17 10:48:33;;;;;;;3.60;1.20;;;;;;;22.92;36.70;100010.24;430831;1273;141482;-62
2022/06/17 10:59:00;;;;;;;1.00;0.70;;;;;;;22.41;37.19;100012.90;430278;1273;142508;-62
2022/06/17 11:09:25;;;;;;;3.20;1.10;;;;;;;23.07;37.34;100004.23;432940;1273;143049;-62
2022/06/17 11:19:50;;;;;;;2.70;1.20;;;;;;;23.14;36.76;100008.23;430369;1273;140402;-60
2022/06/17 11:30:23;;;;;;;3.40;0.90;;;;;;;23.07;36.63;100007.20;431409;1273;142411;-62
2022/06/17 11:40:51;;;;;;;4.80;1.70;;;;;;;23.51;36.54;100002.73;431596;1273;141203;-63
2022/06/17 11:51:16;;;;;;;3.50;0.90;;;;;;;23.42;36.04;99996.90;431868;1273;141084;-59
2022/06/17 12:01:38;;;;;;;1.70;1.00;;;;;;;23.09;36.76;100010.16;431899;1273;140780;-60
2022/06/17 12:12:05;;;;;;;2.70;1.30;;;;;;;22.67;37.61;100001.20;430321;1273;144694;-61
2022/06/17 12:22:36;;;;;;;1.30;0.90;;;;;;;22.66;37.73;100010.02;430368;1273;141935;-62
2022/06/17 12:33:04;;;;;;;4.50;1.20;;;;;;;23.00;37.43;100011.23;429921;1273;141690;-62
2022/06/17 12:43:34;;;;;;;1.00;0.70;;;;;;;23.07;36.72;100007.56;442610;1272;142463;-62
2022/06/17 12:54:03;;;;;;;2.00;1.30;;;;;;;22.95;36.80;100009.44;446930;1271;154115;-62
2022/06/17 13:04:42;;;;;;;0.70;0.50;;;;;;;22.95;37.35;100009.73;446964;1273;140844;-60
2022/06/17 13:15:10;;;;;;;2.00;1.10;;;;;;;23.22;37.05;100001.14;447078;1272;142536;-62
2022/06/17 13:25:39;;;;;;;1.30;1.00;;;;;;;23.22;37.31;99993.10;443450;1273;142392;-62
2022/06/17 13:36:04;;;;;;;3.30;1.00;;;;;;;23.24;37.80;99991.11;441395;1273;144806;-62
2022/06/17 13:46:32;;;;;;;2.50;0.70;;;;;;;23.47;37.00;99987.67;446161;1272;143319;-61
2022/06/17 13:57:02;;;;;;;2.90;1.10;;;;;;;23.14;36.90;99985.57;447354;1272;141947;-62
2022/06/17 14:07:24;;;;;;;2.90;0.80;;;;;;;23.01;37.55;99973.61;447329;1273;141364;-62
2022/06/17 14:17:49;;;;;;;1.40;1.00;;;;;;;23.20;36.64;99967.41;432750;1273;144335;-62
2022/06/17 14:28:34;;;;;;;0.80;0.80;;;;;;;23.10;36.85;99967.73;439685;1273;142134;-61
2022/06/17 14:39:03;;;;;;;3.00;0.80;;;;;;;22.95;37.13;99971.95;447318;1272;151876;-62
2022/06/17 14:49:42;;;;;;;1.40;0.60;;;;;;;22.88;36.77;99966.32;437450;1273;147203;-61
2022/06/17 15:00:13;;;;;;;2.00;0.70;;;;;;;23.06;36.65;99956.41;436586;1272;141900;-62
2022/06/17 15:10:38;;;;;;;1.80;0.60;;;;;;;23.00;35.72;99963.65;447426;1272;141592;-61
2022/06/17 15:21:17;;;;;;;0.90;0.50;;;;;;;22.63;36.04;99965.08;447376;1270;141629;-62
2022/06/17 15:31:39;;;;;;;3.60;0.80;;;;;;;22.17;36.65;99962.27;447392;1273;142101;-62
2022/06/17 15:42:03;;;;;;;1.90;0.70;;;;;;;22.07;36.80;99967.55;431795;1273;142305;-63
2022/06/17 15:52:28;;;;;;;2.00;0.90;;;;;;;21.97;37.49;99967.77;430651;1272;143108;-63
2022/06/17 16:02:53;;;;;;;1.30;0.50;;;;;;;22.07;37.79;99964.61;429927;1273;142193;-63
2022/06/17 16:13:24;;;;;;;2.70;0.80;;;;;;;22.11;37.63;99963.61;434121;1273;142062;-61
2022/06/17 16:23:45;;;;;;;2.50;0.70;;;;;;;22.34;37.78;99962.23;432507;1272;143000;-62
2022/06/17 16:34:15;;;;;;;1.40;0.70;;;;;;;22.37;37.79;99959.79;441146;1273;142832;-61
2022/06/17 16:44:36;;;;;;;1.50;0.60;;;;;;;22.11;38.41;99971.67;433423;1273;143998;-63
2022/06/17 16:54:58;;;;;;;3.00;0.70;;;;;;;22.22;38.62;99978.80;441905;1272;142147;-62
2022/06/17 17:05:21;;;;;;;1.10;0.80;;;;;;;22.22;38.81;99983.14;442670;1273;144689;-62
2022/06/17 17:15:43;;;;;;;1.40;0.80;;;;;;;22.04;39.09;99980.45;445810;1272;142042;-61
2022/06/17 17:26:05;;;;;;;2.10;0.80;;;;;;;21.83;39.30;99984.89;428944;1274;142174;-61
2022/06/17 17:36:27;;;;;;;4.10;1.20;;;;;;;21.53;39.76;99991.35;430127;1273;143100;-62
2022/06/17 17:46:50;;;;;;;2.40;1.10;;;;;;;21.11;40.53;99997.27;429916;1273;147092;-61
2022/06/17 17:57:12;;;;;;;3.20;1.40;;;;;;;20.71;41.35;100000.77;430003;1273;143080;-62
2022/06/17 18:07:34;;;;;;;6.50;1.20;;;;;;;20.39;42.68;99998.08;430440;1273;142268;-62
2022/06/17 18:17:56;;;;;;;6.70;1.90;;;;;;;20.11;44.59;99993.34;430075;1273;141264;-61
2022/06/17 18:28:18;;;;;;;3.60;1.70;;;;;;;19.93;45.58;99993.48;430420;1273;141465;-62
2022/06/17 18:38:40;;;;;;;10.30;2.30;;;;;;;19.78;46.95;100000.71;430176;1273;142153;-60
2022/06/17 18:49:06;;;;;;;4.60;2.60;;;;;;;19.61;48.03;100005.13;434736;1272;145169;-62
2022/06/17 18:59:28;;;;;;;19.90;2.50;;;;;;;19.41;49.23;100009.51;430309;1273;142575;-59
2022/06/17 19:20:32;;;;;;;4.40;2.00;;;;;;;19.02;51.55;100022.73;431208;1273;141881;-61
2022/06/17 19:30:56;;;;;;;3.10;2.10;;;;;;;18.82;51.96;100031.23;432058;1273;144527;-60
2022/06/17 19:52:25;;;;;;;4.20;2.70;;;;;;;18.51;54.15;100042.59;430553;1273;141026;-62
2022/06/17 20:02:48;;;;;;;6.20;3.60;;;;;;;18.40;53.83;100042.46;429429;1273;142725;-61
2022/06/17 20:13:10;;;;;;;10.10;4.30;;;;;;;18.26;55.13;100044.04;433537;1270;143414;-61
2022/06/17 20:23:33;;;;;;;11.90;4.20;;;;;;;18.07;56.03;100046.59;430634;1272;141738;-62
2022/06/17 20:33:55;;;;;;;6.30;4.00;;;;;;;17.79;56.76;100047.55;432395;1273;340909;-61
2022/06/17 20:44:21;;;;;;;8.00;5.10;;;;;;;17.47;57.98;100049.95;429806;1273;142909;-62
2022/06/17 20:54:44;;;;;;;8.70;5.00;;;;;;;17.07;59.10;100053.48;430458;1273;143324;-60
2022/06/17 21:05:08;;;;;;;10.10;5.00;;;;;;;16.72;60.11;100054.63;429915;1273;141870;-61
2022/06/17 21:15:32;;;;;;;13.30;5.00;;;;;;;16.37;61.13;100060.05;431897;1273;147043;-62
2022/06/17 21:25:55;;;;;;;7.50;5.50;;;;;;;16.10;62.13;100066.80;429339;1273;143694;-61
2022/06/17 21:36:20;;;;;;;11.40;5.50;;;;;;;15.89;62.86;100065.23;430400;1273;145589;-62
2022/06/17 21:46:44;;;;;;;9.70;5.30;;;;;;;15.61;63.31;100071.63;430318;1273;142035;-60
2022/06/17 21:57:12;;;;;;;9.30;6.50;;;;;;;15.28;64.08;100067.66;430807;1273;143267;-62
2022/06/17 22:07:34;;;;;;;11.40;7.50;;;;;;;14.96;64.79;100070.88;430332;1273;146657;-64
2022/06/17 22:17:58;;;;;;;10.50;6.60;;;;;;;14.71;65.39;100072.38;430084;1273;143998;-60
2022/06/17 22:28:20;;;;;;;12.00;6.70;;;;;;;14.47;66.04;100068.27;434504;1273;147099;-62
2022/06/17 22:38:42;;;;;;;9.10;6.40;;;;;;;14.24;66.57;100069.60;440809;1272;146120;-61
2022/06/17 22:49:04;;;;;;;10.20;7.20;;;;;;;14.06;67.05;100068.00;442841;1273;147491;-62
2022/06/17 22:59:25;;;;;;;10.00;6.80;;;;;;;13.88;67.43;100055.93;440091;1272;143154;-62
2022/06/17 23:09:47;;;;;;;8.60;7.10;;;;;;;13.71;67.90;100049.66;432317;1273;144829;-63
2022/06/17 23:20:10;;;;;;;8.70;7.00;;;;;;;13.56;68.13;100047.73;445235;1273;146955;-62
2022/06/17 23:30:34;;;;;;;9.40;7.20;;;;;;;13.40;68.34;100050.05;447331;1273;146274;-63
2022/06/17 23:40:56;;;;;;;8.00;6.00;;;;;;;13.27;68.72;100044.38;446544;1272;143719;-60
2022/06/17 23:51:20;;;;;;;9.70;6.60;;;;;;;13.17;68.98;100040.89;441508;1273;143489;-61
